OOCL Hamburg — VRZK9 — position and weather

sailwx.info

Track history (hours):
 
Tides and Currents Weather Stations Pressure Air Temp Water Temp Dewpoint Dewpoint Depression Visibility Wind Speed Wind Dir Waves Ship Positions

OOCL Hamburg

Last reported at 2014-Aug-18 23:08 UTC. Time now 2014-Sep-01 07:29 UTC.
Position N 31°21' E 032°23'.
Warning: this ship's position is 13 days out of date.

Length 323 m; beam 42.8 m; draft 14.5 m.

Type: Cargo ship. MMSI: 477702000.

Date/timePositionNaut miles runAvg speedWind from/ knotsBaromVisibWave heightAir tempDewpointWater temp
2014-Aug-18 23:08N 31°21' E 032°23'5 6.1
2014-Aug-18 22:19N 31°26' E 032°22'3 2.6
2014-Aug-18 21:18N 31°24' E 032°20'0 0.0
2014-Aug-18 15:33N 31°24' E 032°20'0 0.0
2014-Aug-18 13:33N 31°24' E 032°20'0 0.1
2014-Aug-18 12:34N 31°24' E 032°20'29 4.0
2014-Aug-18 05:08N 31°28' E 031°45'0 0.0
2014-Aug-18 02:21N 31°28' E 031°45'0 0.0
2014-Aug-18 01:33N 31°28' E 031°45'0 0.0
2014-Aug-18 00:27N 31°28' E 031°45'0 0.0
2014-Aug-17 17:33N 31°28' E 031°45'0 0.0
2014-Aug-17 16:24N 31°28' E 031°45'0 0.0
2014-Aug-17 15:30N 31°28' E 031°45'0 0.0
2014-Aug-17 14:33N 31°28' E 031°45'0 0.0
2014-Aug-17 13:33N 31°28' E 031°45'0 0.0
2014-Aug-17 10:27N 31°28' E 031°45'0 0.0
2014-Aug-17 09:30N 31°28' E 031°45'0 0.0
2014-Aug-17 08:24N 31°28' E 031°45'36 6.0
2014-Aug-17 02:23N 31°57' E 031°20'1513.7
2014-Aug-17 01:19N 32°04' E 031°06'1114.1
2014-Aug-17 00:33N 32°09' E 030°54'3114.3
2014-Aug-16 22:24N 32°18' E 030°19'1214.1
2014-Aug-16 21:33N 32°22' E 030°06'1414.1
2014-Aug-16 20:33N 32°26' E 029°50'1414.4
2014-Aug-16 19:33N 32°31' E 029°34'1414.1
2014-Aug-16 18:33N 32°35' E 029°18'1413.7
2014-Aug-16 17:33N 32°39' E 029°02'1313.3
2014-Aug-16 16:33N 32°43' E 028°47'1313.5
2014-Aug-16 15:33N 32°47' E 028°32'1413.8
2014-Aug-16 14:33N 32°51' E 028°16'1413.9
2014-Aug-16 13:33N 32°56' E 028°00'4213.8
2014-Aug-16 10:32N 33°08' E 027°13'1414.3
2014-Aug-16 09:33N 33°13' E 026°57'1514.8
2014-Aug-16 08:33N 33°17' E 026°40'1514.8
2014-Aug-16 07:32N 33°22' E 026°23'1914.1
2014-Aug-16 06:11N 33°28' E 026°01'5715.7
2014-Aug-16 02:33N 33°45' E 024°56'1414.2
2014-Aug-16 01:33N 33°49' E 024°39'4314.3
2014-Aug-15 22:32N 34°02' E 023°50'44014.4
2014-Aug-14 16:07N 36°16' E 015°18'814.6
2014-Aug-14 15:33N 36°18' E 015°08'1514.6
2014-Aug-14 14:33N 36°23' E 014°51'1514.6
2014-Aug-14 13:33N 36°27' E 014°34'1514.9
2014-Aug-14 12:33N 36°32' E 014°16'1514.7
2014-Aug-14 11:33N 36°36' E 013°59'1414.5
2014-Aug-14 10:33N 36°41' E 013°42'1514.6
2014-Aug-14 09:33N 36°45' E 013°24'1414.3
2014-Aug-14 08:33N 36°49' E 013°07'1714.2
2014-Aug-14 07:20N 36°55' E 012°46'7915.2
2014-Aug-14 02:08N 37°21' E 011°13'914.9
2014-Aug-14 01:34N 37°25' E 011°03'1514.8
2014-Aug-14 00:34N 37°29' E 010°45'1514.8
2014-Aug-13 23:34N 37°32' E 010°27'1515.2
2014-Aug-13 22:34N 37°34' E 010°08'1615.6
2014-Aug-13 21:34N 37°34' E 009°48'1615.6
2014-Aug-13 20:34N 37°35' E 009°29'1515.2
2014-Aug-13 19:33N 37°36' E 009°09'1514.7
2014-Aug-13 18:34N 37°37' E 008°51'1614.8
2014-Aug-13 17:29N 37°41' E 008°32'1414.7
2014-Aug-13 16:33N 37°45' E 008°15'1514.5
2014-Aug-13 15:33N 37°49' E 007°57'6514.5
2014-Aug-13 11:05N 38°07' E 006°38'5315.0
2014-Aug-13 07:33N 38°21' E 005°33'5716.8
2014-Aug-13 04:09N 38°37' E 004°23'4015.6
2014-Aug-13 01:33N 38°48' E 003°33'1615.8
2014-Aug-13 00:33N 38°52' E 003°13'1716.1
2014-Aug-12 23:28N 38°57' E 002°52'1515.4
2014-Aug-12 22:29N 39°01' E 002°33'1314.3
2014-Aug-12 21:33N 39°05' E 002°16'1616.0
2014-Aug-12 20:31N 39°09' E 001°56'1515.2
2014-Aug-12 19:30N 39°13' E 001°37'1414.4
2014-Aug-12 18:33N 39°16' E 001°20'1715.3
2014-Aug-12 17:26N 39°18' E 000°58'5115.3
2014-Aug-12 14:05N 39°24' W 000°08'814.6
2014-Aug-12 13:34N 39°26' W 000°18'1 1.2
2014-Aug-12 12:31N 39°27' W 000°19'0 0.0
2014-Aug-12 11:31N 39°27' W 000°19'0 0.0
2014-Aug-12 10:31N 39°27' W 000°19'0 0.0
2014-Aug-12 09:31N 39°27' W 000°19'0 0.0
2014-Aug-12 08:31N 39°27' W 000°19'0 0.0
2014-Aug-12 07:31N 39°27' W 000°19'0 0.0
2014-Aug-12 06:31N 39°27' W 000°19'0 0.0
2014-Aug-12 05:31N 39°27' W 000°19'0 0.0
2014-Aug-12 04:31N 39°27' W 000°19'0 0.0
2014-Aug-12 03:31N 39°27' W 000°19'0 0.0
2014-Aug-12 02:31N 39°27' W 000°19'0 0.0
2014-Aug-12 01:31N 39°27' W 000°19'0 0.0
2014-Aug-12 00:31N 39°27' W 000°19'0 0.0
2014-Aug-11 23:31N 39°27' W 000°19'0 0.0
2014-Aug-11 22:31N 39°27' W 000°19'0 0.0
2014-Aug-11 21:31N 39°27' W 000°19'0 0.0
2014-Aug-11 20:31N 39°27' W 000°19'0 0.0
2014-Aug-11 19:31N 39°27' W 000°19'0 0.0
2014-Aug-11 18:31N 39°27' W 000°19'0 0.0
2014-Aug-11 17:31N 39°27' W 000°19'0 0.0
2014-Aug-11 16:31N 39°27' W 000°19'0 0.0
2014-Aug-11 15:31N 39°27' W 000°19'0 0.0
2014-Aug-11 14:31N 39°27' W 000°19'0 0.0
2014-Aug-11 13:31N 39°27' W 000°19'0 0.1
2014-Aug-11 12:34N 39°27' W 000°19'5 5.1
2014-Aug-11 11:34N 39°26' W 000°12'4119.0
2014-Aug-11 09:24N 39°56' E 000°24'2319.8
2014-Aug-11 08:16N 40°14' E 000°41'1520.9
2014-Aug-11 07:33N 40°27' E 000°53'2120.8
2014-Aug-11 06:33N 40°44' E 001°09'2220.2
2014-Aug-11 05:26N 40°57' E 001°33'1921.3
2014-Aug-11 04:33N 41°07' E 001°53'1717.1
2014-Aug-11 03:33N 41°19' E 002°10'2 0.9
2014-Aug-11 01:26N 41°21' E 002°10'0 0.0
2014-Aug-11 00:32N 41°21' E 002°10'0 0.0
2014-Aug-10 23:32N 41°21' E 002°10'0 0.0
2014-Aug-10 22:32N 41°21' E 002°10'0 0.0
2014-Aug-10 21:32N 41°21' E 002°10'0 0.0
2014-Aug-10 20:29N 41°21' E 002°10'0 0.0
2014-Aug-10 18:29N 41°21' E 002°10'0 0.0
2014-Aug-10 17:32N 41°21' E 002°10'0 0.0
2014-Aug-10 16:26N 41°21' E 002°10'0 0.0
2014-Aug-10 15:26N 41°21' E 002°10'0 0.0
2014-Aug-10 14:08N 41°21' E 002°10'0 0.0
2014-Aug-10 12:14N 41°21' E 002°10'0 0.0
2014-Aug-10 11:32N 41°21' E 002°10'0 0.0
2014-Aug-10 10:32N 41°21' E 002°10'0 0.0
2014-Aug-10 09:23N 41°21' E 002°10'0 0.0
2014-Aug-10 07:20N 41°21' E 002°10'0 0.0
2014-Aug-10 06:32N 41°21' E 002°10'0 0.0
2014-Aug-10 04:33N 41°21' E 002°10'7 6.6
2014-Aug-10 03:33N 41°15' E 002°15'1413.8
2014-Aug-10 02:33N 41°21' E 002°31'1717.1
2014-Aug-10 01:33N 41°30' E 002°51'1515.3
2014-Aug-10 00:33N 41°39' E 003°07'1615.6
2014-Aug-09 23:33N 41°50' E 003°21'1615.9
2014-Aug-09 22:34N 42°02' E 003°37'1616.2
2014-Aug-09 21:34N 42°14' E 003°51'1717.2
2014-Aug-09 20:33N 42°26' E 004°07'1616.2
2014-Aug-09 19:33N 42°38' E 004°22'1716.5
2014-Aug-09 18:33N 42°50' E 004°37'1716.5
2014-Aug-09 17:34N 43°03' E 004°52'1515.0
2014-Aug-09 16:34N 43°17' E 004°59'10 9.9
2014-Aug-09 15:34N 43°25' E 004°51'0 0.1
2014-Aug-09 14:33N 43°25' E 004°51'0 0.0
2014-Aug-09 13:33N 43°25' E 004°51'0 0.0
2014-Aug-09 12:33N 43°25' E 004°51'0 0.0
2014-Aug-09 11:33N 43°25' E 004°51'0 0.0
2014-Aug-09 10:33N 43°25' E 004°51'0 0.0
2014-Aug-09 09:33N 43°25' E 004°51'0 0.0
2014-Aug-09 08:30N 43°25' E 004°51'0 0.0
2014-Aug-09 07:33N 43°25' E 004°51'0 0.0
2014-Aug-09 06:33N 43°25' E 004°51'0 0.0
2014-Aug-09 05:33N 43°25' E 004°51'0 0.0
2014-Aug-09 04:33N 43°25' E 004°51'0 0.0
2014-Aug-09 03:33N 43°25' E 004°51'0 0.0
2014-Aug-09 02:33N 43°25' E 004°51'0 0.0
2014-Aug-09 01:33N 43°25' E 004°51'0 0.0
2014-Aug-09 00:33N 43°25' E 004°51'0 0.0
2014-Aug-08 23:33N 43°25' E 004°51'  
Track history (hours):
 
Tides and Currents Weather Stations Pressure Air Temp Water Temp Dewpoint Dewpoint Depression Visibility Wind Speed Wind Dir Waves Ship Positions

OOCL Hamburg

Last reported at 2014-Aug-18 23:08 UTC. Time now 2014-Sep-01 07:29 UTC.
Position N 31°21' E 032°23'.
Warning: this ship's position is 13 days out of date.

Length 323 m; beam 42.8 m; draft 14.5 m.

Type: Cargo ship. MMSI: 477702000.

Date/timePositionNaut miles runAvg speedWind from/ knotsBaromVisibWave heightAir tempDewpointWater temp
2014-Aug-18 23:08N 31°21' E 032°23'5 6.1
2014-Aug-18 22:19N 31°26' E 032°22'3 2.6
2014-Aug-18 21:18N 31°24' E 032°20'0 0.0
2014-Aug-18 15:33N 31°24' E 032°20'0 0.0
2014-Aug-18 13:33N 31°24' E 032°20'0 0.1
2014-Aug-18 12:34N 31°24' E 032°20'29 4.0
2014-Aug-18 05:08N 31°28' E 031°45'0 0.0
2014-Aug-18 02:21N 31°28' E 031°45'0 0.0
2014-Aug-18 01:33N 31°28' E 031°45'0 0.0
2014-Aug-18 00:27N 31°28' E 031°45'0 0.0
2014-Aug-17 17:33N 31°28' E 031°45'0 0.0
2014-Aug-17 16:24N 31°28' E 031°45'0 0.0
2014-Aug-17 15:30N 31°28' E 031°45'0 0.0
2014-Aug-17 14:33N 31°28' E 031°45'0 0.0
2014-Aug-17 13:33N 31°28' E 031°45'0 0.0
2014-Aug-17 10:27N 31°28' E 031°45'0 0.0
2014-Aug-17 09:30N 31°28' E 031°45'0 0.0
2014-Aug-17 08:24N 31°28' E 031°45'36 6.0
2014-Aug-17 02:23N 31°57' E 031°20'1513.7
2014-Aug-17 01:19N 32°04' E 031°06'1114.1
2014-Aug-17 00:33N 32°09' E 030°54'3114.3
2014-Aug-16 22:24N 32°18' E 030°19'1214.1
2014-Aug-16 21:33N 32°22' E 030°06'1414.1
2014-Aug-16 20:33N 32°26' E 029°50'1414.4
2014-Aug-16 19:33N 32°31' E 029°34'1414.1
2014-Aug-16 18:33N 32°35' E 029°18'1413.7
2014-Aug-16 17:33N 32°39' E 029°02'1313.3
2014-Aug-16 16:33N 32°43' E 028°47'1313.5
2014-Aug-16 15:33N 32°47' E 028°32'1413.8
2014-Aug-16 14:33N 32°51' E 028°16'1413.9
2014-Aug-16 13:33N 32°56' E 028°00'4213.8
2014-Aug-16 10:32N 33°08' E 027°13'1414.3
2014-Aug-16 09:33N 33°13' E 026°57'1514.8
2014-Aug-16 08:33N 33°17' E 026°40'1514.8
2014-Aug-16 07:32N 33°22' E 026°23'1914.1
2014-Aug-16 06:11N 33°28' E 026°01'5715.7
2014-Aug-16 02:33N 33°45' E 024°56'1414.2
2014-Aug-16 01:33N 33°49' E 024°39'4314.3
2014-Aug-15 22:32N 34°02' E 023°50'44014.4
2014-Aug-14 16:07N 36°16' E 015°18'814.6
2014-Aug-14 15:33N 36°18' E 015°08'1514.6
2014-Aug-14 14:33N 36°23' E 014°51'1514.6
2014-Aug-14 13:33N 36°27' E 014°34'1514.9
2014-Aug-14 12:33N 36°32' E 014°16'1514.7
2014-Aug-14 11:33N 36°36' E 013°59'1414.5
2014-Aug-14 10:33N 36°41' E 013°42'1514.6
2014-Aug-14 09:33N 36°45' E 013°24'1414.3
2014-Aug-14 08:33N 36°49' E 013°07'1714.2
2014-Aug-14 07:20N 36°55' E 012°46'7915.2
2014-Aug-14 02:08N 37°21' E 011°13'914.9
2014-Aug-14 01:34N 37°25' E 011°03'1514.8
2014-Aug-14 00:34N 37°29' E 010°45'1514.8
2014-Aug-13 23:34N 37°32' E 010°27'1515.2
2014-Aug-13 22:34N 37°34' E 010°08'1615.6
2014-Aug-13 21:34N 37°34' E 009°48'1615.6
2014-Aug-13 20:34N 37°35' E 009°29'1515.2
2014-Aug-13 19:33N 37°36' E 009°09'1514.7
2014-Aug-13 18:34N 37°37' E 008°51'1614.8
2014-Aug-13 17:29N 37°41' E 008°32'1414.7
2014-Aug-13 16:33N 37°45' E 008°15'1514.5
2014-Aug-13 15:33N 37°49' E 007°57'6514.5
2014-Aug-13 11:05N 38°07' E 006°38'5315.0
2014-Aug-13 07:33N 38°21' E 005°33'5716.8
2014-Aug-13 04:09N 38°37' E 004°23'4015.6
2014-Aug-13 01:33N 38°48' E 003°33'1615.8
2014-Aug-13 00:33N 38°52' E 003°13'1716.1
2014-Aug-12 23:28N 38°57' E 002°52'1515.4
2014-Aug-12 22:29N 39°01' E 002°33'1314.3
2014-Aug-12 21:33N 39°05' E 002°16'1616.0
2014-Aug-12 20:31N 39°09' E 001°56'1515.2
2014-Aug-12 19:30N 39°13' E 001°37'1414.4
2014-Aug-12 18:33N 39°16' E 001°20'1715.3
2014-Aug-12 17:26N 39°18' E 000°58'5115.3
2014-Aug-12 14:05N 39°24' W 000°08'814.6
2014-Aug-12 13:34N 39°26' W 000°18'1 1.2
2014-Aug-12 12:31N 39°27' W 000°19'0 0.0
2014-Aug-12 11:31N 39°27' W 000°19'0 0.0
2014-Aug-12 10:31N 39°27' W 000°19'0 0.0
2014-Aug-12 09:31N 39°27' W 000°19'0 0.0
2014-Aug-12 08:31N 39°27' W 000°19'0 0.0
2014-Aug-12 07:31N 39°27' W 000°19'0 0.0
2014-Aug-12 06:31N 39°27' W 000°19'0 0.0
2014-Aug-12 05:31N 39°27' W 000°19'0 0.0
2014-Aug-12 04:31N 39°27' W 000°19'0 0.0
2014-Aug-12 03:31N 39°27' W 000°19'0 0.0
2014-Aug-12 02:31N 39°27' W 000°19'0 0.0
2014-Aug-12 01:31N 39°27' W 000°19'0 0.0
2014-Aug-12 00:31N 39°27' W 000°19'0 0.0
2014-Aug-11 23:31N 39°27' W 000°19'0 0.0
2014-Aug-11 22:31N 39°27' W 000°19'0 0.0
2014-Aug-11 21:31N 39°27' W 000°19'0 0.0
2014-Aug-11 20:31N 39°27' W 000°19'0 0.0
2014-Aug-11 19:31N 39°27' W 000°19'0 0.0
2014-Aug-11 18:31N 39°27' W 000°19'0 0.0
2014-Aug-11 17:31N 39°27' W 000°19'0 0.0
2014-Aug-11 16:31N 39°27' W 000°19'0 0.0
2014-Aug-11 15:31N 39°27' W 000°19'0 0.0
2014-Aug-11 14:31N 39°27' W 000°19'0 0.0
2014-Aug-11 13:31N 39°27' W 000°19'0 0.1
2014-Aug-11 12:34N 39°27' W 000°19'5 5.1
2014-Aug-11 11:34N 39°26' W 000°12'4119.0
2014-Aug-11 09:24N 39°56' E 000°24'2319.8
2014-Aug-11 08:16N 40°14' E 000°41'1520.9
2014-Aug-11 07:33N 40°27' E 000°53'2120.8
2014-Aug-11 06:33N 40°44' E 001°09'2220.2
2014-Aug-11 05:26N 40°57' E 001°33'1921.3
2014-Aug-11 04:33N 41°07' E 001°53'1717.1
2014-Aug-11 03:33N 41°19' E 002°10'2 0.9
2014-Aug-11 01:26N 41°21' E 002°10'0 0.0
2014-Aug-11 00:32N 41°21' E 002°10'0 0.0
2014-Aug-10 23:32N 41°21' E 002°10'0 0.0
2014-Aug-10 22:32N 41°21' E 002°10'0 0.0
2014-Aug-10 21:32N 41°21' E 002°10'0 0.0
2014-Aug-10 20:29N 41°21' E 002°10'0 0.0
2014-Aug-10 18:29N 41°21' E 002°10'0 0.0
2014-Aug-10 17:32N 41°21' E 002°10'0 0.0
2014-Aug-10 16:26N 41°21' E 002°10'0 0.0
2014-Aug-10 15:26N 41°21' E 002°10'0 0.0
2014-Aug-10 14:08N 41°21' E 002°10'0 0.0
2014-Aug-10 12:14N 41°21' E 002°10'0 0.0
2014-Aug-10 11:32N 41°21' E 002°10'0 0.0
2014-Aug-10 10:32N 41°21' E 002°10'0 0.0
2014-Aug-10 09:23N 41°21' E 002°10'0 0.0
2014-Aug-10 07:20N 41°21' E 002°10'0 0.0
2014-Aug-10 06:32N 41°21' E 002°10'0 0.0
2014-Aug-10 04:33N 41°21' E 002°10'7 6.6
2014-Aug-10 03:33N 41°15' E 002°15'1413.8
2014-Aug-10 02:33N 41°21' E 002°31'1717.1
2014-Aug-10 01:33N 41°30' E 002°51'1515.3
2014-Aug-10 00:33N 41°39' E 003°07'1615.6
2014-Aug-09 23:33N 41°50' E 003°21'1615.9
2014-Aug-09 22:34N 42°02' E 003°37'1616.2
2014-Aug-09 21:34N 42°14' E 003°51'1717.2
2014-Aug-09 20:33N 42°26' E 004°07'1616.2
2014-Aug-09 19:33N 42°38' E 004°22'1716.5
2014-Aug-09 18:33N 42°50' E 004°37'1716.5
2014-Aug-09 17:34N 43°03' E 004°52'1515.0
2014-Aug-09 16:34N 43°17' E 004°59'10 9.9
2014-Aug-09 15:34N 43°25' E 004°51'0 0.1
2014-Aug-09 14:33N 43°25' E 004°51'0 0.0
2014-Aug-09 13:33N 43°25' E 004°51'0 0.0
2014-Aug-09 12:33N 43°25' E 004°51'0 0.0
2014-Aug-09 11:33N 43°25' E 004°51'0 0.0
2014-Aug-09 10:33N 43°25' E 004°51'0 0.0
2014-Aug-09 09:33N 43°25' E 004°51'0 0.0
2014-Aug-09 08:30N 43°25' E 004°51'0 0.0
2014-Aug-09 07:33N 43°25' E 004°51'0 0.0
2014-Aug-09 06:33N 43°25' E 004°51'0 0.0
2014-Aug-09 05:33N 43°25' E 004°51'0 0.0
2014-Aug-09 04:33N 43°25' E 004°51'0 0.0
2014-Aug-09 03:33N 43°25' E 004°51'0 0.0
2014-Aug-09 02:33N 43°25' E 004°51'0 0.0
2014-Aug-09 01:33N 43°25' E 004°51'0 0.0
2014-Aug-09 00:33N 43°25' E 004°51'0 0.0
2014-Aug-08 23:33N 43°25' E 004°51'  

Dump ship's entire track history